createdAt,value
2022-08-22T00:00:13.456Z,6.63
2022-08-22T00:01:23.933Z,11.52
2022-08-22T00:02:34.285Z,8.70
2022-08-22T00:02:55.978Z,10.68
2022-08-22T00:02:56.596Z,11.73
2022-08-22T00:02:58.075Z,8.38
2022-08-22T00:03:01.345Z,12.13
2022-08-22T00:03:52.722Z,7.55
2022-08-22T00:05:01.152Z,7.93
2022-08-22T00:06:09.974Z,9.60
2022-08-22T00:07:39.047Z,11.57
2022-08-22T00:08:55.961Z,10.82
2022-08-22T00:10:10.579Z,7.72
2022-08-22T00:11:31.687Z,6.20
2022-08-22T00:12:40.539Z,10.13
2022-08-22T00:13:40.145Z,9.00
2022-08-22T00:14:47.057Z,9.13
2022-08-22T00:16:09.235Z,6.72
2022-08-22T00:17:43.179Z,7.88
2022-08-22T00:18:54.124Z,7.53
2022-08-22T00:20:16.486Z,7.60
2022-08-22T00:21:32.808Z,11.45
2022-08-22T00:22:29.467Z,11.05
2022-08-22T00:23:44.878Z,7.07
2022-08-22T00:25:25.879Z,6.00
2022-08-22T00:26:45.770Z,7.55
2022-08-22T00:27:56.867Z,8.32
2022-08-22T00:29:01.240Z,8.10
2022-08-22T00:30:05.710Z,8.73
2022-08-22T00:31:19.332Z,7.25
2022-08-22T00:32:27.117Z,9.10
2022-08-22T00:33:42.558Z,5.35
2022-08-22T00:34:53.950Z,6.78
2022-08-22T00:36:00.748Z,6.53
2022-08-22T00:37:07.236Z,6.50
2022-08-22T00:38:15.846Z,8.52
2022-08-22T00:39:24.581Z,7.05
2022-08-22T00:40:46.921Z,4.72
2022-08-22T00:42:08.264Z,7.88
2022-08-22T00:43:38.006Z,7.93
2022-08-22T00:44:43.508Z,10.45
2022-08-22T00:46:00.552Z,8.82
2022-08-22T00:47:10.951Z,9.23
2022-08-22T00:48:32.329Z,5.13
2022-08-22T00:49:41.053Z,6.25
2022-08-22T00:51:11.807Z,7.68
2022-08-22T00:52:11.263Z,7.93
2022-08-22T00:53:41.914Z,7.85
2022-08-22T00:55:10.662Z,6.82
2022-08-22T00:56:35.304Z,5.68
2022-08-22T00:57:50.254Z,11.98
2022-08-22T00:58:52.698Z,12.82
2022-08-22T01:00:56.103Z,12.98
2022-08-22T01:02:01.703Z,9.43
2022-08-22T01:03:26.812Z,10.40
2022-08-22T01:04:38.787Z,11.73
2022-08-22T01:06:05.613Z,12.77
2022-08-22T01:07:38.003Z,7.88
2022-08-22T01:08:53.212Z,14.30
2022-08-22T01:10:10.425Z,11.75
2022-08-22T01:11:31.551Z,8.35
2022-08-22T01:13:00.266Z,11.88
2022-08-22T01:14:34.184Z,8.68
2022-08-22T01:15:36.620Z,11.40
2022-08-22T01:17:05.346Z,9.65
2022-08-22T01:18:29.328Z,10.48
2022-08-22T01:19:44.129Z,8.60
2022-08-22T01:20:53.034Z,11.73
2022-08-22T01:22:14.480Z,9.52
2022-08-22T01:23:32.819Z,13.25
2022-08-22T01:25:04.404Z,9.90
2022-08-22T01:26:26.233Z,6.88
2022-08-22T01:28:58.712Z,12.10
2022-08-22T01:30:12.840Z,9.15
2022-08-22T01:31:12.452Z,6.82
2022-08-22T01:32:36.838Z,8.30
2022-08-22T01:33:36.289Z,9.88
2022-08-22T01:34:54.074Z,10.40
2022-08-22T01:35:53.786Z,10.15
2022-08-22T01:36:56.016Z,11.27
2022-08-22T01:38:05.733Z,15.13
2022-08-22T01:39:27.974Z,10.13
2022-08-22T01:40:38.142Z,11.40
2022-08-22T01:42:03.172Z,12.27
2022-08-22T01:43:59.913Z,8.50
2022-08-22T01:45:14.067Z,7.75
2022-08-22T01:46:32.537Z,9.73
2022-08-22T01:47:39.330Z,9.65
2022-08-22T01:49:06.406Z,12.48
2022-08-22T01:50:39.893Z,10.25
2022-08-22T01:51:48.194Z,12.80
2022-08-22T01:52:50.885Z,12.13
2022-08-22T01:54:13.642Z,18.20
2022-08-22T01:55:14.380Z,13.38
2022-08-22T01:56:18.276Z,22.23
2022-08-22T01:57:15.547Z,13.18
2022-08-22T01:58:23.101Z,8.85
2022-08-22T01:59:34.095Z,9.13
2022-08-22T02:00:49.357Z,10.85
2022-08-22T02:02:01.930Z,15.63
2022-08-22T02:03:23.121Z,6.30
2022-08-22T02:04:34.482Z,11.90
2022-08-22T02:05:39.112Z,16.10
2022-08-22T02:06:44.613Z,10.02
2022-08-22T02:08:05.673Z,11.15
2022-08-22T02:09:10.733Z,8.68
2022-08-22T02:10:17.983Z,14.52
2022-08-22T02:11:43.758Z,15.50
2022-08-22T02:13:02.460Z,15.68
2022-08-22T02:14:24.607Z,10.35
2022-08-22T02:15:35.065Z,12.63
2022-08-22T02:16:41.313Z,7.78
2022-08-22T02:17:53.055Z,13.43
2022-08-22T02:19:14.419Z,11.45
2022-08-22T02:20:21.907Z,9.93
2022-08-22T02:21:44.131Z,14.73
2022-08-22T02:23:11.974Z,13.00
2022-08-22T02:24:26.700Z,9.98
2022-08-22T02:25:32.595Z,12.13
2022-08-22T02:26:41.414Z,13.38
2022-08-22T02:27:52.354Z,10.82
2022-08-22T02:29:07.987Z,8.18
2022-08-22T02:30:04.614Z,9.88
2022-08-22T02:31:16.829Z,12.68
2022-08-22T02:32:35.431Z,11.18
2022-08-22T02:33:37.914Z,13.93
2022-08-22T02:35:42.243Z,8.60
2022-08-22T02:37:05.437Z,8.63
2022-08-22T02:38:33.864Z,9.63
2022-08-22T02:39:36.988Z,9.88
2022-08-22T02:40:54.784Z,10.82
2022-08-22T02:42:15.993Z,10.27
2022-08-22T02:43:36.778Z,7.57
2022-08-22T02:44:38.255Z,14.68
2022-08-22T02:45:55.446Z,14.70
2022-08-22T02:47:00.962Z,16.23
2022-08-22T02:48:06.579Z,13.80
2022-08-22T02:49:12.693Z,9.02
2022-08-22T02:50:36.057Z,14.35
2022-08-22T02:51:55.720Z,21.10
2022-08-22T02:53:21.203Z,14.57
2022-08-22T02:54:27.849Z,13.38
2022-08-22T02:55:58.086Z,15.00
2022-08-22T02:57:24.604Z,12.55
2022-08-22T02:58:57.016Z,14.95
2022-08-22T03:00:27.745Z,9.38
2022-08-22T03:01:27.926Z,12.73
2022-08-22T03:02:44.455Z,11.52
2022-08-22T03:03:45.950Z,8.27
2022-08-22T03:04:42.688Z,14.40
2022-08-22T03:05:39.425Z,17.23
2022-08-22T03:07:03.025Z,11.20
2022-08-22T03:08:17.638Z,14.40
2022-08-22T03:09:28.718Z,8.50
2022-08-22T03:10:38.432Z,17.70
2022-08-22T03:11:40.267Z,10.05
2022-08-22T03:12:57.505Z,15.32
2022-08-22T03:14:11.895Z,10.98
2022-08-22T03:15:32.835Z,10.75
2022-08-22T03:16:40.225Z,13.15
2022-08-22T03:17:49.604Z,13.45
2022-08-22T03:18:59.271Z,15.05
2022-08-22T03:20:06.529Z,14.57
2022-08-22T03:21:25.430Z,14.38
2022-08-22T03:22:32.455Z,14.10
2022-08-22T03:23:55.026Z,11.95
2022-08-22T03:25:03.650Z,14.68
2022-08-22T03:26:19.055Z,13.70
2022-08-22T03:27:56.465Z,12.13
2022-08-22T03:29:00.405Z,10.43
2022-08-22T03:30:02.159Z,13.55
2022-08-22T03:31:13.850Z,12.25
2022-08-22T03:32:20.118Z,12.90
2022-08-22T03:33:29.414Z,12.65
2022-08-22T03:34:27.149Z,12.65
2022-08-22T03:35:28.689Z,14.45
2022-08-22T03:36:31.415Z,12.27
2022-08-22T03:37:43.188Z,15.27
2022-08-22T03:38:52.142Z,11.52
2022-08-22T03:39:51.577Z,13.38
2022-08-22T03:41:03.597Z,10.10
2022-08-22T03:42:15.873Z,10.23
2022-08-22T03:43:44.473Z,10.83
2022-08-22T03:45:14.596Z,9.55
2022-08-22T03:46:39.186Z,13.35
2022-08-22T03:47:50.976Z,11.85
2022-08-22T03:49:09.160Z,11.63
2022-08-22T03:50:14.823Z,11.23
2022-08-22T03:51:55.169Z,13.38
2022-08-22T03:53:19.534Z,12.38
2022-08-22T03:54:38.984Z,14.50
2022-08-22T03:56:09.647Z,12.13
2022-08-22T03:57:40.179Z,16.15
2022-08-22T03:59:00.817Z,8.48
2022-08-22T04:00:05.235Z,9.63
2022-08-22T04:01:08.422Z,12.50
2022-08-22T04:02:26.196Z,10.13
2022-08-22T04:03:55.663Z,19.05
2022-08-22T04:05:23.050Z,19.92
2022-08-22T04:06:49.482Z,17.23
2022-08-22T04:08:14.730Z,20.00
2022-08-22T04:09:11.573Z,20.90
2022-08-22T04:10:31.173Z,19.08
2022-08-22T04:11:42.867Z,17.65
2022-08-22T04:13:02.790Z,15.73
2022-08-22T04:14:24.294Z,26.55
2022-08-22T04:15:33.619Z,19.95
2022-08-22T04:16:51.611Z,21.48
2022-08-22T04:18:19.399Z,20.13
2022-08-22T04:19:45.228Z,18.58
2022-08-22T04:21:06.846Z,14.88
2022-08-22T04:22:31.349Z,15.07
2022-08-22T04:23:46.704Z,11.35
2022-08-22T04:24:52.153Z,12.88
2022-08-22T04:25:57.667Z,14.10
2022-08-22T04:27:14.797Z,14.05
2022-08-22T04:28:41.543Z,19.50
2022-08-22T04:30:22.966Z,18.73
2022-08-22T04:31:28.995Z,18.92
2022-08-22T04:32:25.595Z,16.88
2022-08-22T04:33:44.411Z,23.58
2022-08-22T04:34:48.917Z,19.00
2022-08-22T04:35:57.478Z,19.02
2022-08-22T04:37:04.384Z,15.68
2022-08-22T04:38:04.566Z,15.73
2022-08-22T04:39:10.233Z,14.52
2022-08-22T04:40:22.272Z,19.00
2022-08-22T04:41:26.135Z,15.40
2022-08-22T04:42:32.883Z,15.73
2022-08-22T04:43:41.842Z,15.77
2022-08-22T04:44:46.581Z,14.27
2022-08-22T04:45:50.409Z,16.98
2022-08-22T04:47:03.583Z,16.35
2022-08-22T04:48:30.192Z,16.85
2022-08-22T04:49:35.605Z,16.60
2022-08-22T04:50:43.341Z,16.15
2022-08-22T04:52:21.665Z,15.20
2022-08-22T04:53:42.476Z,17.15
2022-08-22T04:54:55.587Z,18.95
2022-08-22T04:55:56.756Z,12.95
2022-08-22T04:57:39.363Z,17.48
2022-08-22T04:58:35.989Z,14.10
2022-08-22T04:59:35.027Z,15.35
2022-08-22T05:00:44.915Z,12.95
2022-08-22T05:01:57.234Z,16.67
2022-08-22T05:02:57.647Z,13.23
2022-08-22T05:04:05.814Z,13.25
2022-08-22T05:05:13.281Z,12.57
2022-08-22T05:06:14.430Z,12.82
2022-08-22T05:07:15.776Z,12.98
2022-08-22T05:08:17.520Z,16.65
2022-08-22T05:09:22.355Z,13.68
2022-08-22T05:10:33.011Z,10.57
2022-08-22T05:11:31.338Z,12.05
2022-08-22T05:12:35.194Z,12.38
2022-08-22T05:13:39.272Z,12.93
2022-08-22T05:14:42.609Z,10.68
2022-08-22T05:15:44.040Z,21.08
2022-08-22T05:16:45.817Z,14.98
2022-08-22T05:17:44.245Z,12.38
2022-08-22T05:18:53.062Z,12.07
2022-08-22T05:19:54.836Z,11.75
2022-08-22T05:20:53.257Z,10.48
2022-08-22T05:21:51.731Z,10.38
2022-08-22T05:22:55.341Z,18.33
2022-08-22T05:23:57.512Z,10.25
2022-08-22T05:24:59.999Z,9.43
2022-08-22T05:27:00.976Z,13.90
2022-08-22T05:28:28.792Z,11.50
2022-08-22T05:29:29.885Z,9.65
2022-08-22T05:30:29.396Z,9.55
2022-08-22T05:31:34.846Z,8.43
2022-08-22T05:33:00.433Z,9.52
2022-08-22T05:34:04.638Z,9.43
2022-08-22T05:35:03.783Z,12.00
2022-08-22T05:36:12.076Z,11.68
2022-08-22T05:37:14.226Z,11.52
2022-08-22T05:38:15.869Z,14.15
2022-08-22T05:39:20.326Z,11.57
2022-08-22T05:40:24.729Z,12.27
2022-08-22T05:41:25.404Z,12.13
2022-08-22T05:42:31.608Z,9.23
2022-08-22T05:43:28.785Z,9.98
2022-08-22T05:44:30.596Z,8.90
2022-08-22T05:45:28.647Z,11.30
2022-08-22T05:47:06.537Z,15.20
2022-08-22T05:48:11.935Z,10.43
2022-08-22T05:49:24.432Z,11.23
2022-08-22T05:50:47.217Z,8.63
2022-08-22T05:52:06.117Z,7.85
2022-08-22T05:53:09.982Z,9.20
2022-08-22T05:54:16.468Z,9.45
2022-08-22T05:55:28.924Z,7.68
2022-08-22T05:56:34.657Z,11.25
2022-08-22T05:57:38.142Z,10.43
2022-08-22T05:58:43.544Z,11.60
2022-08-22T05:59:43.012Z,10.18
2022-08-22T06:00:45.310Z,12.38
2022-08-22T06:02:11.980Z,9.13
2022-08-22T06:03:37.031Z,8.38
2022-08-22T06:04:39.096Z,12.48
2022-08-22T06:05:40.578Z,12.18
2022-08-22T06:06:43.710Z,15.13
2022-08-22T06:07:45.476Z,17.83
2022-08-22T06:08:49.040Z,13.60
2022-08-22T06:09:48.414Z,13.75
2022-08-22T06:10:52.744Z,12.68
2022-08-22T06:11:56.529Z,12.30
2022-08-22T06:13:16.392Z,16.33
2022-08-22T06:14:49.644Z,9.85
2022-08-22T06:16:07.565Z,9.55
2022-08-22T06:17:20.223Z,10.00
2022-08-22T06:18:21.454Z,11.27
2022-08-22T06:19:20.307Z,12.77
2022-08-22T06:20:28.794Z,11.55
2022-08-22T06:21:39.507Z,14.43
2022-08-22T06:22:42.322Z,12.30
2022-08-22T06:24:38.452Z,12.55
2022-08-22T06:25:39.064Z,12.50
2022-08-22T06:26:40.177Z,14.27
2022-08-22T06:27:37.926Z,15.73
2022-08-22T06:28:55.058Z,14.15
2022-08-22T06:29:57.848Z,13.68
2022-08-22T06:30:57.039Z,16.83
2022-08-22T06:31:54.009Z,13.85
2022-08-22T06:33:00.926Z,12.68
2022-08-22T06:34:25.631Z,12.18
2022-08-22T06:35:24.572Z,12.43
2022-08-22T06:36:32.566Z,11.88
2022-08-22T06:37:42.789Z,18.20
2022-08-22T06:39:21.304Z,16.92
2022-08-22T06:40:19.001Z,11.90
2022-08-22T06:41:15.898Z,16.88
2022-08-22T06:42:17.447Z,17.40
2022-08-22T06:43:15.593Z,16.90
2022-08-22T06:44:16.250Z,15.23
2022-08-22T06:45:22.215Z,13.43
2022-08-22T06:46:21.464Z,11.90
2022-08-22T06:47:49.818Z,14.40
2022-08-22T06:48:48.803Z,12.20
2022-08-22T06:49:46.153Z,11.35
2022-08-22T06:50:45.623Z,10.88
2022-08-22T06:51:45.286Z,14.82
2022-08-22T06:53:17.472Z,11.18
2022-08-22T06:54:22.205Z,14.25
2022-08-22T06:55:19.491Z,14.18
2022-08-22T06:56:23.943Z,12.73
2022-08-22T06:57:43.690Z,12.27
2022-08-22T06:58:46.375Z,18.25
2022-08-22T06:59:44.006Z,17.10
2022-08-22T07:00:42.570Z,16.30
2022-08-22T07:01:49.322Z,19.25
2022-08-22T07:03:00.403Z,16.48
2022-08-22T07:04:06.219Z,15.95
2022-08-22T07:05:03.030Z,15.77
2022-08-22T07:06:00.323Z,14.57
2022-08-22T07:07:01.019Z,15.00
2022-08-22T07:07:58.071Z,15.90
2022-08-22T07:08:56.508Z,16.00
2022-08-22T07:09:57.515Z,17.92
2022-08-22T07:11:15.363Z,15.70
2022-08-22T07:12:20.221Z,15.57
2022-08-22T07:13:19.902Z,16.73
2022-08-22T07:14:24.838Z,18.70
2022-08-22T07:15:35.544Z,13.18
2022-08-22T07:16:40.315Z,13.45
2022-08-22T07:17:40.601Z,14.52
2022-08-22T07:18:49.005Z,13.23
2022-08-22T07:19:59.913Z,16.15
2022-08-22T07:21:04.391Z,14.15
2022-08-22T07:22:17.420Z,14.30
2022-08-22T07:23:31.668Z,13.85
2022-08-22T07:24:32.789Z,15.75
2022-08-22T07:25:31.785Z,12.73
2022-08-22T07:26:33.811Z,16.73
2022-08-22T07:27:31.419Z,15.93
2022-08-22T07:28:51.626Z,20.30
2022-08-22T07:30:14.030Z,15.43
2022-08-22T07:31:29.290Z,13.95
2022-08-22T07:32:48.711Z,18.33
2022-08-22T07:33:49.659Z,15.07
2022-08-22T07:34:55.220Z,14.00
2022-08-22T07:36:00.109Z,14.63
2022-08-22T07:37:03.717Z,18.27
2022-08-22T07:38:28.874Z,14.02
2022-08-22T07:39:37.153Z,15.35
2022-08-22T07:40:48.456Z,15.60
2022-08-22T07:42:03.476Z,16.52
2022-08-22T07:43:18.439Z,15.80
2022-08-22T07:44:21.940Z,12.88
2022-08-22T07:45:32.061Z,14.93
2022-08-22T07:46:45.863Z,15.60
2022-08-22T07:48:03.878Z,14.95
2022-08-22T07:49:15.451Z,15.80
2022-08-22T07:50:18.256Z,15.65
2022-08-22T07:51:24.361Z,14.93
2022-08-22T07:52:22.296Z,19.30
2022-08-22T07:53:18.917Z,13.75
2022-08-22T07:54:39.055Z,15.13
2022-08-22T07:55:49.361Z,12.77
2022-08-22T07:57:09.629Z,14.45
2022-08-22T07:58:08.046Z,12.77
2022-08-22T07:59:14.728Z,14.23
2022-08-22T08:00:17.570Z,16.58
2022-08-22T08:01:21.152Z,14.13
2022-08-22T08:02:19.521Z,13.82
2022-08-22T08:03:17.350Z,10.13
2022-08-22T08:04:20.757Z,15.15
2022-08-22T08:05:19.195Z,13.13
2022-08-22T08:06:16.015Z,15.18
2022-08-22T08:07:16.015Z,11.77
2022-08-22T08:08:23.383Z,14.48
2022-08-22T08:09:21.189Z,13.05
2022-08-22T08:10:24.137Z,17.25
2022-08-22T08:11:26.138Z,11.75
2022-08-22T08:12:40.012Z,14.95
2022-08-22T08:13:42.053Z,12.30
2022-08-22T08:14:42.621Z,16.92
2022-08-22T08:15:42.967Z,12.10
2022-08-22T08:17:10.701Z,14.50
2022-08-22T08:18:19.161Z,15.80
2022-08-22T08:19:19.043Z,12.63
2022-08-22T08:20:19.863Z,11.60
2022-08-22T08:21:27.681Z,13.38
2022-08-22T08:22:26.999Z,19.70
2022-08-22T08:23:25.224Z,12.90
2022-08-22T08:24:44.110Z,12.52
2022-08-22T08:25:58.433Z,14.25
2022-08-22T08:27:18.836Z,14.90
2022-08-22T08:28:34.316Z,14.18
2022-08-22T08:29:32.831Z,13.85
2022-08-22T08:30:32.309Z,13.63
2022-08-22T08:31:35.499Z,13.50
2022-08-22T08:32:35.325Z,13.65
2022-08-22T08:33:32.328Z,12.30
2022-08-22T08:34:32.529Z,10.63
2022-08-22T08:36:57.982Z,15.05
2022-08-22T08:38:02.090Z,12.80
2022-08-22T08:39:12.601Z,10.63
2022-08-22T08:40:37.974Z,16.92
2022-08-22T08:41:34.582Z,12.32
2022-08-22T08:43:01.977Z,10.15
2022-08-22T08:44:43.243Z,10.85
2022-08-22T08:45:42.680Z,13.70
2022-08-22T08:47:04.093Z,15.00
2022-08-22T08:48:21.947Z,9.95
2022-08-22T08:49:33.631Z,10.10
2022-08-22T08:51:09.826Z,10.95
2022-08-22T08:52:24.579Z,10.98
2022-08-22T08:53:43.304Z,12.55
2022-08-22T08:54:46.124Z,11.00
2022-08-22T08:55:54.303Z,9.05
2022-08-22T08:57:03.344Z,8.70
2022-08-22T08:58:33.717Z,10.40
2022-08-22T08:59:33.176Z,9.85
2022-08-22T09:00:42.115Z,10.85
2022-08-22T09:01:45.629Z,12.43
2022-08-22T09:03:15.444Z,10.57
2022-08-22T09:04:54.510Z,10.25
2022-08-22T09:05:56.084Z,11.55
2022-08-22T09:07:08.222Z,13.13
2022-08-22T09:08:31.131Z,10.93
2022-08-22T09:09:54.886Z,9.63
2022-08-22T09:13:12.258Z,11.68
2022-08-22T09:14:16.517Z,11.77
2022-08-22T09:15:37.747Z,10.85
2022-08-22T09:16:51.884Z,10.73
2022-08-22T09:18:26.993Z,11.40
2022-08-22T09:20:15.420Z,9.50
2022-08-22T09:22:15.025Z,10.90
2022-08-22T09:23:48.787Z,9.80
2022-08-22T09:24:59.047Z,10.73
2022-08-22T09:26:07.960Z,11.07
2022-08-22T09:27:13.282Z,9.00
2022-08-22T09:28:29.550Z,11.02
2022-08-22T09:29:54.630Z,10.02
2022-08-22T09:31:17.024Z,11.38
2022-08-22T09:32:28.765Z,9.68
2022-08-22T09:33:35.290Z,13.45
2022-08-22T09:34:47.741Z,7.95
2022-08-22T09:36:05.059Z,10.27
2022-08-22T09:37:26.384Z,8.93
2022-08-22T09:38:39.087Z,12.30
2022-08-22T09:39:46.963Z,9.00
2022-08-22T09:41:02.313Z,13.88
2022-08-22T09:42:18.556Z,13.40
2022-08-22T09:43:22.777Z,11.60
2022-08-22T09:44:42.461Z,11.27
2022-08-22T09:45:52.466Z,10.02
2022-08-22T09:47:02.477Z,14.35
2022-08-22T09:48:17.754Z,11.77
2022-08-22T09:49:27.543Z,10.35
2022-08-22T09:50:52.773Z,9.13
2022-08-22T09:52:33.868Z,10.10
2022-08-22T09:53:46.763Z,10.07
2022-08-22T09:56:00.766Z,9.25
2022-08-22T09:58:18.220Z,13.63
2022-08-22T09:59:18.662Z,10.88
2022-08-22T10:00:30.432Z,11.37
2022-08-22T10:01:39.060Z,12.73
2022-08-22T10:02:51.841Z,13.13
2022-08-22T10:04:12.984Z,11.48
2022-08-22T10:05:44.206Z,9.38
2022-08-22T10:07:25.171Z,11.02
2022-08-22T10:08:34.629Z,13.15
2022-08-22T10:09:48.903Z,11.02
2022-08-22T10:11:12.754Z,11.98
2022-08-22T10:12:15.225Z,14.52
2022-08-22T10:13:32.388Z,11.90
2022-08-22T10:15:01.688Z,9.02
2022-08-22T10:16:17.941Z,11.50
2022-08-22T10:17:30.611Z,11.98
2022-08-22T10:18:35.152Z,9.45
2022-08-22T10:19:40.485Z,10.32
2022-08-22T10:20:52.938Z,11.13
2022-08-22T10:22:23.105Z,12.48
2022-08-22T10:23:24.039Z,13.07
2022-08-22T10:24:59.989Z,14.50
2022-08-22T10:26:29.346Z,11.85
2022-08-22T10:27:52.718Z,9.85
2022-08-22T10:29:17.818Z,16.67
2022-08-22T10:30:20.548Z,16.23
2022-08-22T10:31:58.874Z,14.70
2022-08-22T10:33:13.005Z,13.82
2022-08-22T10:34:16.460Z,15.38
2022-08-22T10:35:38.905Z,13.80
2022-08-22T10:36:41.785Z,10.97
2022-08-22T10:38:52.366Z,10.57
2022-08-22T10:40:24.591Z,15.45
2022-08-22T10:41:47.024Z,30.35
2022-08-22T10:43:06.820Z,13.32
2022-08-22T10:44:21.621Z,8.07
2022-08-22T10:45:35.862Z,9.93
2022-08-22T10:46:50.187Z,15.35
2022-08-22T10:47:54.420Z,16.30
2022-08-22T10:50:08.587Z,10.32
2022-08-22T10:51:18.751Z,9.95
2022-08-22T10:52:31.351Z,10.05
2022-08-22T10:53:52.109Z,13.20
2022-08-22T10:55:09.598Z,9.98
2022-08-22T10:56:22.022Z,11.55
2022-08-22T10:57:28.018Z,11.18
2022-08-22T10:58:28.086Z,9.15
2022-08-22T10:59:38.127Z,11.23
2022-08-22T11:00:49.705Z,9.13
2022-08-22T11:02:26.502Z,12.68
2022-08-22T11:04:02.223Z,12.13
2022-08-22T11:05:19.763Z,10.55
2022-08-22T11:06:24.387Z,10.68
2022-08-22T11:07:48.885Z,12.32
2022-08-22T11:09:08.766Z,12.43
2022-08-22T11:10:32.153Z,13.18
2022-08-22T11:12:01.975Z,13.80
2022-08-22T11:13:18.527Z,8.88
2022-08-22T11:14:44.746Z,9.98
2022-08-22T11:16:04.293Z,10.18
2022-08-22T11:17:28.945Z,9.50
2022-08-22T11:19:02.092Z,12.00
2022-08-22T11:20:09.171Z,8.68
2022-08-22T11:21:46.707Z,15.07
2022-08-22T11:23:17.090Z,9.05
2022-08-22T11:24:35.226Z,7.68
2022-08-22T11:25:53.791Z,10.07
2022-08-22T11:26:57.647Z,7.75
2022-08-22T11:28:18.149Z,8.98
2022-08-22T11:29:26.364Z,8.77
2022-08-22T11:30:44.685Z,10.20
2022-08-22T11:31:53.287Z,9.30
2022-08-22T11:33:02.185Z,10.02
2022-08-22T11:34:20.409Z,9.05
2022-08-22T11:35:25.864Z,9.07
2022-08-22T11:36:30.914Z,10.30
2022-08-22T11:37:43.658Z,9.23
2022-08-22T11:39:05.461Z,8.55
2022-08-22T11:40:19.303Z,11.18
2022-08-22T11:41:26.745Z,12.90
2022-08-22T11:43:03.168Z,7.40
2022-08-22T11:44:16.207Z,10.80
2022-08-22T11:45:21.858Z,9.40
2022-08-22T11:46:25.548Z,9.00
2022-08-22T11:47:26.698Z,8.93
2022-08-22T11:48:48.615Z,8.27
2022-08-22T11:49:48.053Z,13.75
2022-08-22T11:51:03.255Z,8.20
2022-08-22T11:52:13.502Z,9.15
2022-08-22T11:53:42.103Z,10.55
2022-08-22T11:55:00.922Z,10.48
2022-08-22T11:56:10.586Z,12.95
2022-08-22T11:57:34.351Z,9.80
2022-08-22T11:58:34.176Z,13.25
2022-08-22T12:00:02.949Z,8.82
2022-08-22T12:01:17.219Z,12.27
2022-08-22T12:02:29.290Z,11.80
2022-08-22T12:03:39.889Z,9.80
2022-08-22T12:04:44.242Z,9.57
2022-08-22T12:06:19.877Z,8.95
2022-08-22T12:07:37.881Z,8.98
2022-08-22T12:08:35.259Z,10.25
2022-08-22T12:09:56.674Z,10.68
2022-08-22T12:11:03.206Z,11.13
2022-08-22T12:12:20.863Z,10.25
2022-08-22T12:14:08.830Z,8.95
2022-08-22T12:15:21.652Z,13.02
2022-08-22T12:16:27.275Z,9.55
2022-08-22T12:17:55.325Z,8.63
2022-08-22T12:19:02.312Z,9.73
2022-08-22T12:20:17.020Z,16.95
2022-08-22T12:21:41.512Z,9.98
2022-08-22T12:23:08.864Z,16.00
2022-08-22T12:24:24.795Z,9.63
2022-08-22T12:25:44.454Z,11.80
2022-08-22T12:26:59.428Z,9.85
2022-08-22T12:28:15.925Z,11.82
2022-08-22T12:29:53.007Z,13.23
2022-08-22T12:30:59.702Z,13.07
2022-08-22T12:32:45.861Z,10.85
2022-08-22T12:34:07.405Z,13.43
2022-08-22T12:35:29.972Z,10.70
2022-08-22T12:36:43.495Z,13.32
2022-08-22T12:38:00.080Z,12.20
2022-08-22T12:39:27.492Z,11.93
2022-08-22T12:40:36.576Z,16.17
2022-08-22T12:42:01.373Z,11.43
2022-08-22T12:43:13.337Z,10.07
2022-08-22T12:44:17.185Z,12.10
2022-08-22T12:45:31.801Z,11.60
2022-08-22T12:46:47.326Z,12.77
2022-08-22T12:48:15.031Z,12.35
2022-08-22T12:49:44.967Z,8.73
2022-08-22T12:50:52.062Z,12.15
2022-08-22T12:52:04.287Z,9.90
2022-08-22T12:53:20.441Z,14.27
2022-08-22T12:54:57.996Z,9.57
2022-08-22T12:56:05.305Z,9.00
2022-08-22T12:57:23.781Z,11.60
2022-08-22T12:58:37.313Z,9.43
2022-08-22T12:59:40.520Z,10.13
2022-08-22T13:00:43.945Z,9.95
2022-08-22T13:01:48.292Z,16.55
2022-08-22T13:02:46.344Z,14.15
2022-08-22T13:03:53.494Z,12.13
2022-08-22T13:05:08.844Z,17.75
2022-08-22T13:06:37.840Z,16.95
2022-08-22T13:07:37.110Z,10.57
2022-08-22T13:08:45.812Z,13.60
2022-08-22T13:09:52.507Z,10.35
2022-08-22T13:10:58.287Z,10.73
2022-08-22T13:12:00.388Z,12.35
2022-08-22T13:13:00.277Z,10.00
2022-08-22T13:14:02.433Z,11.20
2022-08-22T13:15:10.886Z,9.50
2022-08-22T13:16:11.677Z,10.23
2022-08-22T13:17:24.390Z,13.27
2022-08-22T13:18:31.146Z,11.00
2022-08-22T13:19:32.500Z,12.55
2022-08-22T13:20:36.018Z,14.45
2022-08-22T13:21:38.737Z,9.52
2022-08-22T13:22:40.345Z,12.93
2022-08-22T13:23:47.148Z,14.57
2022-08-22T13:24:52.808Z,12.23
2022-08-22T13:26:10.589Z,10.25
2022-08-22T13:27:16.560Z,10.77
2022-08-22T13:28:17.971Z,12.65
2022-08-22T13:29:26.145Z,11.57
2022-08-22T13:30:37.733Z,11.07
2022-08-22T13:31:37.127Z,11.35
2022-08-22T13:32:33.893Z,9.45
2022-08-22T13:33:39.092Z,7.13
2022-08-22T13:34:43.555Z,10.45
2022-08-22T13:36:06.925Z,8.77
2022-08-22T13:37:15.412Z,15.30
2022-08-22T13:38:25.507Z,10.90
2022-08-22T13:39:29.024Z,9.18
2022-08-22T13:40:29.493Z,12.27
2022-08-22T13:41:31.496Z,14.15
2022-08-22T13:42:31.386Z,14.85
2022-08-22T13:43:33.880Z,23.23
2022-08-22T13:44:37.818Z,20.27
2022-08-22T13:45:38.652Z,12.52
2022-08-22T13:46:44.516Z,5.95
2022-08-22T13:48:03.384Z,17.58
2022-08-22T13:49:04.894Z,17.38
2022-08-22T13:50:14.197Z,13.18
2022-08-22T13:51:36.478Z,21.73
2022-08-22T13:52:42.425Z,23.80
2022-08-22T13:54:00.578Z,21.58
2022-08-22T13:55:12.210Z,24.25
2022-08-22T13:56:17.773Z,21.55
2022-08-22T13:57:45.595Z,25.50
2022-08-22T13:59:59.581Z,22.73
2022-08-22T14:01:28.524Z,24.80
2022-08-22T14:02:58.318Z,23.17
2022-08-22T14:03:57.991Z,23.90
2022-08-22T14:05:01.682Z,22.00
2022-08-22T14:06:32.717Z,26.45
2022-08-22T14:07:29.877Z,28.73
2022-08-22T14:08:33.672Z,27.00
2022-08-22T14:09:48.213Z,28.58
2022-08-22T14:10:55.651Z,22.90
2022-08-22T14:12:21.037Z,25.95
2022-08-22T14:14:04.010Z,19.15
2022-08-22T14:15:04.264Z,20.15
2022-08-22T14:16:04.249Z,24.52
2022-08-22T14:17:01.867Z,24.50
2022-08-22T14:18:15.925Z,20.35
2022-08-22T14:19:23.725Z,22.35
2022-08-22T14:20:32.449Z,20.27
2022-08-22T14:21:51.541Z,22.95
2022-08-22T14:23:19.833Z,23.48
2022-08-22T14:24:27.036Z,20.92
2022-08-22T14:25:26.967Z,19.73
2022-08-22T14:26:37.510Z,26.02
2022-08-22T14:27:52.398Z,24.60
2022-08-22T14:28:49.449Z,25.23
2022-08-22T14:29:51.916Z,29.08
2022-08-22T14:32:01.810Z,22.75
2022-08-22T14:33:21.383Z,21.98
2022-08-22T14:34:19.129Z,21.02
2022-08-22T14:35:35.224Z,20.50
2022-08-22T14:36:56.317Z,20.02
2022-08-22T14:37:58.782Z,23.70
2022-08-22T14:39:20.911Z,19.88
2022-08-22T14:40:35.019Z,23.38
2022-08-22T14:43:06.914Z,26.25
2022-08-22T14:44:12.616Z,29.35
2022-08-22T14:45:24.657Z,27.92
2022-08-22T14:46:35.162Z,24.83
2022-08-22T14:48:29.241Z,25.48
2022-08-22T14:49:18.967Z,25.27
2022-08-22T14:50:59.852Z,25.17
2022-08-22T14:52:02.262Z,24.15
2022-08-22T14:53:09.867Z,26.90
2022-08-22T14:54:21.261Z,25.60
2022-08-22T14:55:26.101Z,25.58
2022-08-22T14:56:27.790Z,24.00
2022-08-22T14:57:24.870Z,26.33
2022-08-22T15:03:14.355Z,29.27
2022-08-22T15:04:18.864Z,25.05
2022-08-22T15:05:22.817Z,24.88
2022-08-22T15:06:48.104Z,27.83
2022-08-22T15:07:55.091Z,28.25
2022-08-22T15:08:53.816Z,27.00
2022-08-22T15:10:01.196Z,24.75
2022-08-22T15:11:18.264Z,22.73
2022-08-22T15:12:24.367Z,28.90
2022-08-22T15:13:25.164Z,27.70
2022-08-22T15:14:44.764Z,26.02
2022-08-22T15:15:54.381Z,25.08
2022-08-22T15:16:55.003Z,22.83
2022-08-22T15:17:51.722Z,27.05
2022-08-22T15:18:51.757Z,30.77
2022-08-22T15:19:49.092Z,29.10
2022-08-22T15:21:06.749Z,29.05
2022-08-22T15:22:15.077Z,27.80
2022-08-22T15:23:23.298Z,24.30
2022-08-22T15:24:21.101Z,25.52
2022-08-22T15:25:23.806Z,28.08
2022-08-22T15:26:28.767Z,24.30
2022-08-22T15:27:27.695Z,23.15
2022-08-22T15:28:25.961Z,22.70
2022-08-22T15:29:29.096Z,22.98
2022-08-22T15:30:44.531Z,22.77
2022-08-22T15:31:43.585Z,23.38
2022-08-22T15:32:45.434Z,29.73
2022-08-22T15:33:46.016Z,25.05
2022-08-22T15:34:45.957Z,23.25
2022-08-22T15:35:45.090Z,23.73
2022-08-22T15:37:08.381Z,24.13
2022-08-22T15:38:24.091Z,25.90
2022-08-22T15:39:35.616Z,26.48
2022-08-22T15:40:42.040Z,20.98
2022-08-22T15:41:45.569Z,23.15
2022-08-22T15:42:47.591Z,26.83
2022-08-22T15:43:49.258Z,24.98
2022-08-22T15:44:46.847Z,23.37
2022-08-22T15:45:44.091Z,26.27
2022-08-22T15:47:06.278Z,23.23
2022-08-22T15:48:24.470Z,24.77
2022-08-22T15:49:21.010Z,27.70